Flight Track Log - Related Links

Times and Time Zones

All times are in EDT time to prevent confusion due to time zone crossing. See the SWA3213 flight status page for this flight to view local times or setup timezone preferences in your user account.

Time Position Orientation Groundspeed Altitude Reporting Facility
EDT Latitude Longitude Course Direction KTS MPH feet Rate Location/Type
Fri 09:52:31 AM 27.9500 -82.5500 221° Southwest 186 214 900  Level Tampa TRACON
Fri 09:53:37 AM 27.9167 -82.5833 221° Southwest 216 249 2,900 2,143 Climbing Tampa TRACON
Fri 09:54:37 AM 27.9000 -82.6500 254° West 239 275 5,400 2,400 Climbing Tampa TRACON
Fri 09:55:37 AM 27.8833 -82.7333 257° West 257 296 7,700 2,354 Climbing Tampa TRACON
Fri 09:58:06 AM 28.0936 -82.7656 352° North 297 342 13,600 2,498 Climbing Jacksonville Center
Fri 09:59:06 AM 28.1894 -82.7725 356° North 328 377 16,400 2,579 Climbing Jacksonville Center
Fri 10:00:07 AM 28.2917 -82.7817 355° North 352 405 18,800 2,300 Climbing Jacksonville Center
Fri 10:01:06 AM 28.3983 -82.7864 358° North 371 427 21,000 2,218 Climbing Jacksonville Center
Fri 10:02:06 AM 28.5067 -82.8028 352° North 381 438 23,200 2,083 Climbing Jacksonville Center
Fri 10:03:07 AM 28.6172 -82.8264 349° North 391 450 25,200 1,650 Climbing Jacksonville Center
Fri 10:04:06 AM 28.7197 -82.8453 351° North 401 461 26,500 1,563 Climbing Jacksonville Center
Fri 10:05:06 AM 28.8344 -82.8711 349° North 406 467 28,300 1,587 Climbing Jacksonville Center
Fri 10:06:07 AM 28.9492 -82.8972 349° North 418 481 29,700 1,500 Climbing Jacksonville Center
Fri 10:07:06 AM 29.0703 -82.9258 348° North 425 489 31,300 1,714 Climbing Jacksonville Center
Fri 10:08:06 AM 29.1850 -82.9519 349° North 431 496 33,100 1,450 Climbing Jacksonville Center
Fri 10:09:06 AM 29.3019 -82.9806 348° North 426 490 34,200 1,400 Climbing Jacksonville Center
Fri 10:10:06 AM 29.4189 -83.0069 349° North 426 490 35,900 900 Climbing Jacksonville Center
Fri 10:11:06 AM 29.5378 -83.0381 347° North 426 490 36,000 50 Climbing Jacksonville Center
Fri 10:12:06 AM 29.6525 -83.0767 344° North 432 497 36,000  Level Jacksonville Center
Fri 10:13:06 AM 29.7611 -83.1269 338° Northwest 432 497 36,000  Level Jacksonville Center
Fri 10:14:06 AM 29.8842 -83.1825 339° North 433 498 36,000  Level Jacksonville Center
Fri 10:15:06 AM 29.9989 -83.2381 337° Northwest 433 498 36,000  Level Jacksonville Center
Fri 10:16:06 AM 30.1114 -83.2864 340° North 433 498 36,000 -50 Level Jacksonville Center
Fri 10:17:06 AM 30.2219 -83.3372 338° Northwest 433 498 35,900  Descending Jacksonville Center
Fri 10:18:07 AM 30.3344 -83.3931 337° Northwest 433 498 36,000 50 Climbing Jacksonville Center
Fri 10:19:06 AM 30.4450 -83.4444 338° Northwest 433 498 36,000  Level Jacksonville Center
Fri 10:20:06 AM 30.5575 -83.4956 339° North 433 498 36,000  Level Jacksonville Center
Fri 10:21:06 AM 30.6658 -83.5472 338° Northwest 433 498 36,000  Level Jacksonville Center
Fri 10:22:06 AM 30.7719 -83.6008 337° Northwest 428 493 36,000  Level Jacksonville Center
Fri 10:23:06 AM 30.8844 -83.6528 338° Northwest 422 486 36,000  Level Jacksonville Center
Fri 10:24:07 AM 30.9967 -83.7069 338° Northwest 422 486 36,000  Level Jacksonville Center
Fri 10:25:06 AM 31.1114 -83.7614 338° Northwest 433 498 36,000  Level Jacksonville Center
Fri 10:26:06 AM 31.2258 -83.8158 338° Northwest 433 498 36,000  Level Jacksonville Center
Fri 10:28:16 AM 31.4544 -83.9294 337° Northwest 409 471 36,000  Level Atlanta Center
Fri 10:29:16 AM 31.5650 -83.9731 341° North 403 464 36,000  Level Atlanta Center
Fri 10:30:16 AM 31.6839 -83.9997 349° North 410 472 36,000  Level Atlanta Center
Fri 10:31:16 AM 31.8031 -84.0242 350° North 420 483 36,000  Level Atlanta Center
Fri 10:32:16 AM 31.9219 -84.0486 350° North 426 490 36,000  Level Atlanta Center
Fri 10:33:16 AM 32.0408 -84.0756 349° North 432 497 36,000  Level Atlanta Center
Fri 10:34:16 AM 32.1578 -84.1003 350° North 432 497 36,000  Level Atlanta Center
Fri 10:35:16 AM 32.2808 -84.1272 350° North 432 497 36,000  Level Atlanta Center
Fri 10:36:16 AM 32.4103 -84.1594 348° North 432 497 36,000  Level Atlanta Center
Fri 10:37:16 AM 32.5333 -84.1842 350° North 432 497 36,000  Level Atlanta Center
Fri 10:38:16 AM 32.6544 -84.2139 348° North 432 497 36,000  Level Atlanta Center
Fri 10:39:16 AM 32.7775 -84.2439 348° North 437 503 36,000  Level Atlanta Center
Fri 10:40:16 AM 32.8986 -84.2739 348° North 437 503 36,000  Level Atlanta Center
Fri 10:41:16 AM 33.0217 -84.2989 350° North 447 514 36,000  Level Atlanta Center
Fri 10:42:16 AM 33.1406 -84.3292 348° North 447 514 36,000  Level Atlanta Center
Fri 10:43:16 AM 33.2469 -84.3517 350° North 447 514 36,000  Level Atlanta Center
Fri 10:44:16 AM 33.3700 -84.3797 349° North 447 514 36,000  Level Atlanta Center
Fri 10:45:16 AM 33.4889 -84.4050 350° North 447 514 36,000 -300 Level Atlanta Center
Fri 10:46:16 AM 33.6119 -84.4331 349° North 447 514 35,400 -500 Descending Atlanta Center
Fri 10:47:16 AM 33.7308 -84.4633 348° North 441 507 35,000 -200 Descending Atlanta Center
Fri 10:48:16 AM 33.8519 -84.4917 349° North 448 516 35,000  Level Atlanta Center
Fri 10:49:16 AM 33.9917 -84.5247 349° North 453 521 35,000  Level Atlanta Center
Fri 10:50:16 AM 34.1125 -84.5556 348° North 446 513 35,000  Level Atlanta Center
Fri 10:51:16 AM 34.2439 -84.5842 350° North 458 527 35,000  Level Atlanta Center
Fri 10:52:16 AM 34.3522 -84.6100 349° North 448 516 35,000  Level Atlanta Center
Fri 10:53:16 AM 34.4775 -84.6386 349° North 448 516 35,000  Level Atlanta Center
Fri 10:54:16 AM 34.5961 -84.6697 348° North 443 510 35,000 -350 Level Atlanta Center
Fri 10:55:16 AM 34.7253 -84.7036 348° North 438 504 34,300 -850 Descending Atlanta Center
Fri 10:56:16 AM 34.8464 -84.7322 349° North 438 504 33,300 -1,000 Descending Atlanta Center
Fri 10:57:16 AM 34.9672 -84.7636 348° North 438 504 32,300 -950 Descending Atlanta Center
Fri 10:58:16 AM 35.0881 -84.7928 349° North 438 504 31,400 -900 Descending Atlanta Center
Fri 10:59:16 AM 35.2089 -84.8242 348° North 433 498 30,500 -700 Descending Atlanta Center
Fri 11:00:16 AM 35.3317 -84.8533 349° North 438 504 30,000 -250 Descending Atlanta Center
Fri 11:01:16 AM 35.4547 -84.8828 349° North 444 511 30,000  Level Atlanta Center
Fri 11:02:16 AM 35.5650 -84.9094 349° North 449 517 30,000  Level Atlanta Center
Fri 11:04:34 AM 35.8531 -84.9811 349° North 456 525 30,000  Level Indianapolis Center
Fri 11:05:35 AM 35.9867 -85.0156 348° North 450 518 30,000  Level Indianapolis Center
Fri 11:06:37 AM 36.1092 -85.0461 349° North 446 513 30,000  Level Indianapolis Center
Fri 11:07:39 AM 36.2300 -85.0767 348° North 443 510 30,000  Level Indianapolis Center
Fri 11:08:40 AM 36.3531 -85.1081 348° North 448 516 30,000 -98 Level Indianapolis Center
Fri 11:09:42 AM 36.4781 -85.1403 348° North 456 525 29,800 -585 Descending Indianapolis Center
Fri 11:10:43 AM 36.6022 -85.1622 352° North 453 521 28,800 -878 Descending Indianapolis Center
Fri 11:11:45 AM 36.7289 -85.1392 North 459 528 28,000 -774 Descending Indianapolis Center
Fri 11:12:47 AM 36.8544 -85.1156 North 455 524 27,200 -1,659 Descending Indianapolis Center
Fri 11:13:48 AM 37.0011 -85.0836 10° North 446 513 24,600 -2,439 Descending Indianapolis Center
Fri 11:14:50 AM 37.1069 -85.0636 North 424 488 22,200 -2,390 Descending Indianapolis Center
Fri 11:15:51 AM 37.2236 -85.0417 North 422 486 19,700 -2,195 Descending Indianapolis Center
Fri 11:16:53 AM 37.3344 -85.0169 10° North 410 472 17,700 -2,323 Descending Indianapolis Center
Fri 11:17:55 AM 37.4619 -84.9922 North 400 460 14,900 -2,488 Descending Indianapolis Center
Fri 11:18:56 AM 37.5672 -84.9714 North 384 442 12,600 -1,854 Descending Indianapolis Center
Fri 11:19:58 AM 37.6658 -84.9731 359° North 360 414 11,100 -1,220 Descending Indianapolis Center
Fri 11:20:59 AM 37.7261 -85.0542 313° West 318 366 10,100 -537 Descending Indianapolis Center
Fri 11:22:01 AM 37.7839 -85.1342 312° West 308 354 10,000 -48 Descending Indianapolis Center
Fri 11:23:03 AM 37.8361 -85.2069 312° West 300 345 10,000 -878 Level Indianapolis Center
Fri 11:24:04 AM 37.8989 -85.2919 313° West 277 319 8,200 -1,707 Descending Indianapolis Center
Fri 11:25:06 AM 37.9492 -85.3631 312° West 272 313 6,500 -1,073 Descending Indianapolis Center
Fri 11:26:07 AM 38.0000 -85.4333 313° West 270 311 6,000 -244 Descending Indianapolis Center
Fri 11:27:09 AM 38.0500 -85.4967 315° West 259 298 6,000  Level Indianapolis Center
Fri 11:28:11 AM 38.1131 -85.5417 331° Northwest 258 297 6,000 -98 Level Indianapolis Center
Fri 11:29:12 AM 38.1758 -85.5856 331° Northwest 256 295 5,800 -683 Descending Indianapolis Center
Fri 11:30:14 AM 38.2347 -85.6317 328° Northwest 252 290 4,600 -871 Descending Indianapolis Center
Fri 11:31:16 AM 38.2958 -85.6622 339° North 245 282 4,000 -581 Descending Indianapolis Center
Fri 11:32:18 AM 38.3556 -85.6908 339° North 237 273 3,400 -488 Descending Indianapolis Center
Fri 11:33:19 AM 38.3664 -85.7656 280° West 211 243 3,000 -195 Descending Indianapolis Center
Fri 11:34:21 AM 38.3164 -85.7778 191° South 199 229 3,000 -242 Level Indianapolis Center
Fri 11:35:23 AM 38.2731 -85.7628 165° South 192 221 2,500 -723 Descending Indianapolis Center
Fri 11:37:32 AM 38.1833 -85.7333 166° South 131 151 700 -837 Descending Louisville TRACON

Login

Don't have an account? Register now (free) for customized features, flight alerts, and more!